TimeEDT,TemperatureF,Dew PointF,Humidity,Sea Level PressureIn,VisibilityMPH,Wind Direction,Wind SpeedMPH,Gust SpeedMPH,PrecipitationIn,Events,Conditions,WindDirDegrees,DateUTC
12:54 AM,81.0,70.0,69,29.92,10.0,West,6.9,-,N/A,,Clear,260,2013-06-26 04:54:00
1:54 AM,81.0,70.0,69,29.93,10.0,West,8.1,-,N/A,,Partly Cloudy,280,2013-06-26 05:54:00
2:54 AM,80.1,71.1,74,29.91,10.0,WSW,10.4,-,N/A,,Clear,250,2013-06-26 06:54:00
3:54 AM,79.0,70.0,74,29.91,10.0,West,9.2,-,N/A,,Clear,270,2013-06-26 07:54:00
4:54 AM,79.0,70.0,74,29.91,10.0,WSW,6.9,-,N/A,,Clear,250,2013-06-26 08:54:00
5:54 AM,78.1,68.0,71,29.91,10.0,WSW,9.2,-,N/A,,Clear,250,2013-06-26 09:54:00
6:54 AM,78.1,68.0,71,29.91,10.0,West,8.1,-,N/A,,Clear,260,2013-06-26 10:54:00
7:54 AM,81.0,69.1,67,29.92,10.0,West,8.1,-,N/A,,Clear,280,2013-06-26 11:54:00
8:54 AM,82.0,69.1,65,29.94,10.0,West,12.7,-,N/A,,Scattered Clouds,270,2013-06-26 12:54:00
9:54 AM,84.0,69.1,61,29.92,10.0,West,8.1,-,N/A,,Clear,270,2013-06-26 13:54:00
10:54 AM,86.0,70.0,59,29.91,10.0,NW,8.1,-,N/A,,Clear,310,2013-06-26 14:54:00
11:54 AM,87.1,71.1,59,29.91,10.0,SW,8.1,-,N/A,,Clear,230,2013-06-26 15:54:00
12:54 PM,90.0,68.0,48,29.90,10.0,West,10.4,-,N/A,,Clear,270,2013-06-26 16:54:00
1:54 PM,89.1,72.0,57,29.89,10.0,South,11.5,-,N/A,,Clear,180,2013-06-26 17:54:00
2:54 PM,91.0,69.1,48,29.88,10.0,West,8.1,-,N/A,,Clear,260,2013-06-26 18:54:00
3:54 PM,86.0,71.1,61,29.87,10.0,SSW,15.0,-,N/A,,Clear,200,2013-06-26 19:54:00
4:54 PM,84.9,71.1,63,29.86,10.0,SSW,15.0,-,N/A,,Clear,200,2013-06-26 20:54:00
5:54 PM,82.9,69.1,63,29.83,10.0,SSW,13.8,-,N/A,,Clear,200,2013-06-26 21:54:00
6:54 PM,82.0,70.0,67,29.84,10.0,SSW,15.0,-,N/A,,Partly Cloudy,210,2013-06-26 22:54:00
7:54 PM,80.1,69.1,69,29.85,10.0,SW,12.7,-,N/A,,Clear,220,2013-06-26 23:54:00
8:54 PM,79.0,70.0,74,29.83,10.0,SSW,9.2,-,N/A,,Clear,200,2013-06-27 00:54:00
9:54 PM,79.0,70.0,74,29.83,10.0,SSW,6.9,-,N/A,,Clear,210,2013-06-27 01:54:00
9:58 PM,79.0,70.0,74,29.84,10.0,SSW,6.9,-,N/A,Thunderstorm,Thunderstorm,210,2013-06-27 01:58:00
10:19 PM,80.1,70.0,71,29.85,10.0,WSW,6.9,-,N/A,,Scattered Clouds,250,2013-06-27 02:19:00
10:54 PM,80.1,70.0,71,29.83,10.0,NW,3.5,-,N/A,,Clear,320,2013-06-27 02:54:00
11:54 PM,80.1,68.0,67,29.83,10.0,WNW,8.1,-,N/A,,Clear,290,2013-06-27 03:54:00